Southern Pines, NC

2:30 AM EDT on July 24, 2016 (GMT -0400)
Broad Street Towns | | Change Station
Active Advisory: Heat Advisory Active Notice: Local Storm Report

Elev 505 ft 35.17 °N, 79.40 °W | Updated 7 minutes ago

Clear
Clear
75.2 °F
Feels Like 74 °F
N
0.0
Wind Variable Wind from WSW

Today
High -- | Low -- °F
--% Chance of Precip.
Yesterday
High -- | Low -- °F
Precip. -- in
Pressure 30.05 in
Visibility 10.0 miles
Clouds Clear
Heat Index 74 °F
Dew Point 73 °F
Humidity 93%
Rainfall 0.00 in
Snow Depth Not available.
6:21 AM 8:26 PM
Waning Gibbous, 79% visible
METAR KSOP 240556Z AUTO 22007KT 10SM CLR 24/23 A3002 RMK AO2 SLP174 T02440228 10294 20244 50004
Pressure 30.05 in
Visibility 10.0 miles
Clouds Clear
Heat Index 74 °F
Dew Point 73 °F
Humidity 93%
Rainfall 0.00 in
Snow Depth Not available.
6:21 AM 8:26 PM
Waning Gibbous, 79% visible
METAR KSOP 240556Z AUTO 22007KT 10SM CLR 24/23 A3002 RMK AO2 SLP174 T02440228 10294 20244 50004

10-Day Weather Forecast

Almanac

Astronomy

Jul. 24, 2016 Rise Set
Actual Time
Civil Twilight
Nautical Twilight
Astronomical Twilight
Moon
Length of Visible Light
Length of Day
Tomorrow will be .
, % of the Moon is Illuminated

Today's Extremes

State Highs State Lows

Community

WunderPhotos

Upload Photos

1,927,038 photos uploaded!

WunderBlog® & News

Nearby

Air Quality

  Air Quality AQ Index Pollutant
Not available.

Snow Depth

Station Depth Elevation

Earthquake Activity

City Distance Mag. Time & Date
Minimum magnitude displayed is 2.5.

Coastal Water Temperatures

Place Temperature

Stations

Nearby Weather Stations

Station Location Temp. Windchill Dew Point Humidity Wind Precip. Elev Updated Type
                   

Watches & Warnings

Heat Advisory
Issued: 3:31 PM EDT Jul. 23, 2016 – National Weather Service

... Heat advisory in effect from noon to 8 PM EDT Sunday...

The National Weather Service in Raleigh has issued a heat
advisory... which is in effect from noon to 8 PM EDT Sunday.

* Temperature... highs will be in the upper 90s.

* Impacts... the heat and humidity will make it feel close to 105
degrees on Sunday. Being in direct sunlight will make it feel
even hotter. This will lead to a greater risk of heat
illnesses... especially among vulnerable communities such as the
sick and elderly... those exerting themselves outdoors... and
those without air conditioning.

Precautionary/preparedness actions...

A heat advisory means that a period of hot temperatures and high
humidity will create a situation in which heat illnesses are
possible. Drink plenty of fluids... stay in an air-conditioned
room... stay out of the sun... and check up on relatives and
neighbors.



Gih